sensor_id;sensor_type;location;lat;lon;timestamp;pressure;altitude;pressure_sealevel;temperature;humidity
23899;BME280;20544;50.018;20.010;2023-04-20T00:00:38;98951.88;;;8.75;100.00
23899;BME280;20544;50.018;20.010;2023-04-20T00:03:56;98945.92;;;8.73;100.00
23899;BME280;20544;50.018;20.010;2023-04-20T00:07:12;98947.76;;;8.72;100.00
23899;BME280;20544;50.018;20.010;2023-04-20T00:10:29;98951.89;;;8.58;100.00
23899;BME280;20544;50.018;20.010;2023-04-20T00:13:46;98945.60;;;8.51;100.00
23899;BME280;20544;50.018;20.010;2023-04-20T00:17:03;98956.66;;;8.47;100.00
23899;BME280;20544;50.018;20.010;2023-04-20T00:20:19;98944.23;;;8.22;100.00
23899;BME280;20544;50.018;20.010;2023-04-20T00:23:37;98949.34;;;8.24;100.00
23899;BME280;20544;50.018;20.010;2023-04-20T00:27:06;98939.59;;;8.24;100.00
23899;BME280;20544;50.018;20.010;2023-04-20T00:30:23;98941.41;;;8.24;100.00
23899;BME280;20544;50.018;20.010;2023-04-20T00:33:40;98938.58;;;8.17;100.00
23899;BME280;20544;50.018;20.010;2023-04-20T00:36:56;98936.58;;;8.11;100.00
23899;BME280;20544;50.018;20.010;2023-04-20T00:40:13;98939.22;;;8.11;100.00
23899;BME280;20544;50.018;20.010;2023-04-20T00:43:29;98935.94;;;8.09;100.00
23899;BME280;20544;50.018;20.010;2023-04-20T00:46:46;98942.84;;;8.02;100.00
23899;BME280;20544;50.018;20.010;2023-04-20T00:50:07;98947.31;;;8.01;100.00
23899;BME280;20544;50.018;20.010;2023-04-20T00:53:25;98949.11;;;8.01;100.00
23899;BME280;20544;50.018;20.010;2023-04-20T00:56:41;98945.15;;;7.97;100.00
23899;BME280;20544;50.018;20.010;2023-04-20T00:59:57;98952.87;;;7.90;100.00
23899;BME280;20544;50.018;20.010;2023-04-20T01:03:15;98941.15;;;7.84;100.00
23899;BME280;20544;50.018;20.010;2023-04-20T01:06:31;98938.03;;;7.89;100.00
23899;BME280;20544;50.018;20.010;2023-04-20T01:09:48;98943.83;;;7.92;100.00
23899;BME280;20544;50.018;20.010;2023-04-20T01:13:05;98949.24;;;7.91;100.00
23899;BME280;20544;50.018;20.010;2023-04-20T01:16:22;98947.58;;;7.82;100.00
23899;BME280;20544;50.018;20.010;2023-04-20T01:19:39;98944.42;;;7.78;100.00
23899;BME280;20544;50.018;20.010;2023-04-20T01:22:57;98945.24;;;7.78;100.00
23899;BME280;20544;50.018;20.010;2023-04-20T01:26:15;98943.95;;;7.83;100.00
23899;BME280;20544;50.018;20.010;2023-04-20T01:29:32;98945.75;;;7.82;100.00
23899;BME280;20544;50.018;20.010;2023-04-20T01:32:49;98946.73;;;7.81;100.00
23899;BME280;20544;50.018;20.010;2023-04-20T01:36:08;98945.75;;;7.74;100.00
23899;BME280;20544;50.018;20.010;2023-04-20T01:39:25;98947.23;;;7.76;100.00
23899;BME280;20544;50.018;20.010;2023-04-20T01:42:41;98946.91;;;7.80;100.00
23899;BME280;20544;50.018;20.010;2023-04-20T01:45:58;98938.34;;;7.86;100.00
23899;BME280;20544;50.018;20.010;2023-04-20T01:49:15;98938.03;;;7.89;100.00
23899;BME280;20544;50.018;20.010;2023-04-20T01:52:31;98940.51;;;7.90;100.00
23899;BME280;20544;50.018;20.010;2023-04-20T01:55:50;98938.55;;;7.92;100.00
23899;BME280;20544;50.018;20.010;2023-04-20T01:59:07;98933.27;;;8.01;100.00
23899;BME280;20544;50.018;20.010;2023-04-20T02:02:24;98932.28;;;8.02;100.00
23899;BME280;20544;50.018;20.010;2023-04-20T02:05:42;98936.58;;;8.03;100.00
23899;BME280;20544;50.018;20.010;2023-04-20T02:08:58;98929.47;;;8.03;100.00
23899;BME280;20544;50.018;20.010;2023-04-20T02:12:17;98938.23;;;8.04;100.00
23899;BME280;20544;50.018;20.010;2023-04-20T02:15:33;98943.36;;;8.05;100.00
23899;BME280;20544;50.018;20.010;2023-04-20T02:18:50;98928.66;;;8.03;100.00
23899;BME280;20544;50.018;20.010;2023-04-20T02:22:07;98929.81;;;8.00;100.00
23899;BME280;20544;50.018;20.010;2023-04-20T02:25:24;98933.60;;;7.98;100.00
23899;BME280;20544;50.018;20.010;2023-04-20T02:28:40;98924.19;;;7.95;100.00
23899;BME280;20544;50.018;20.010;2023-04-20T02:31:57;98928.45;;;7.96;100.00
23899;BME280;20544;50.018;20.010;2023-04-20T02:35:16;98931.47;;;8.01;100.00
23899;BME280;20544;50.018;20.010;2023-04-20T02:38:33;98937.70;;;7.92;100.00
23899;BME280;20544;50.018;20.010;2023-04-20T02:41:49;98936.69;;;7.85;100.00
23899;BME280;20544;50.018;20.010;2023-04-20T02:45:07;98939.19;;;7.86;100.00
23899;BME280;20544;50.018;20.010;2023-04-20T02:48:25;98939.83;;;7.88;100.00
23899;BME280;20544;50.018;20.010;2023-04-20T02:51:42;98932.89;;;7.87;100.00
23899;BME280;20544;50.018;20.010;2023-04-20T02:54:59;98936.20;;;7.89;100.00
23899;BME280;20544;50.018;20.010;2023-04-20T02:58:17;98937.52;;;7.85;100.00
23899;BME280;20544;50.018;20.010;2023-04-20T03:01:52;98942.47;;;7.80;100.00
23899;BME280;20544;50.018;20.010;2023-04-20T03:05:09;98939.31;;;7.76;100.00
23899;BME280;20544;50.018;20.010;2023-04-20T03:08:27;98936.16;;;7.73;100.00
23899;BME280;20544;50.018;20.010;2023-04-20T03:11:43;98926.55;;;7.64;100.00
23899;BME280;20544;50.018;20.010;2023-04-20T03:15:02;98933.18;;;7.68;100.00
23899;BME280;20544;50.018;20.010;2023-04-20T03:18:22;98936.67;;;7.76;100.00
23899;BME280;20544;50.018;20.010;2023-04-20T03:21:39;98935.52;;;7.79;100.00
23899;BME280;20544;50.018;20.010;2023-04-20T03:24:56;98934.20;;;7.83;100.00
23899;BME280;20544;50.018;20.010;2023-04-20T03:28:14;98936.38;;;7.88;100.00
23899;BME280;20544;50.018;20.010;2023-04-20T03:31:32;98931.27;;;7.94;100.00
23899;BME280;20544;50.018;20.010;2023-04-20T03:34:49;98940.20;;;8.02;100.00
23899;BME280;20544;50.018;20.010;2023-04-20T03:38:05;98934.59;;;8.05;100.00
23899;BME280;20544;50.018;20.010;2023-04-20T03:41:25;98936.24;;;8.06;100.00
23899;BME280;20544;50.018;20.010;2023-04-20T03:44:43;98944.03;;;8.07;100.00
23899;BME280;20544;50.018;20.010;2023-04-20T03:48:00;98946.16;;;8.04;100.00
23899;BME280;20544;50.018;20.010;2023-04-20T03:51:17;98946.98;;;8.04;100.00
23899;BME280;20544;50.018;20.010;2023-04-20T03:54:34;98951.59;;;8.02;100.00
23899;BME280;20544;50.018;20.010;2023-04-20T03:57:52;98957.84;;;7.93;100.00
23899;BME280;20544;50.018;20.010;2023-04-20T04:01:08;98957.84;;;7.93;100.00
23899;BME280;20544;50.018;20.010;2023-04-20T04:04:27;98953.58;;;8.00;100.00
23899;BME280;20544;50.018;20.010;2023-04-20T04:07:44;98959.20;;;8.05;100.00
23899;BME280;20544;50.018;20.010;2023-04-20T04:11:00;98952.59;;;8.09;100.00
23899;BME280;20544;50.018;20.010;2023-04-20T04:14:17;98954.94;;;8.13;100.00
23899;BME280;20544;50.018;20.010;2023-04-20T04:17:34;98959.71;;;8.17;100.00
23899;BME280;20544;50.018;20.010;2023-04-20T04:20:51;98958.09;;;8.16;100.00
23899;BME280;20544;50.018;20.010;2023-04-20T04:24:08;98966.66;;;8.18;100.00
23899;BME280;20544;50.018;20.010;2023-04-20T04:27:27;98972.14;;;8.25;100.00
23899;BME280;20544;50.018;20.010;2023-04-20T04:30:43;98968.84;;;8.31;100.00
23899;BME280;20544;50.018;20.010;2023-04-20T04:34:00;98966.84;;;8.33;100.00
23899;BME280;20544;50.018;20.010;2023-04-20T04:37:19;98973.12;;;8.32;100.00
23899;BME280;20544;50.018;20.010;2023-04-20T04:40:36;98971.83;;;8.36;100.00
23899;BME280;20544;50.018;20.010;2023-04-20T04:43:54;98987.17;;;8.41;100.00
23899;BME280;20544;50.018;20.010;2023-04-20T04:47:12;98983.38;;;8.35;100.00
23899;BME280;20544;50.018;20.010;2023-04-20T04:50:31;98991.48;;;8.34;100.00
23899;BME280;20544;50.018;20.010;2023-04-20T04:53:47;98991.14;;;8.37;100.00
23899;BME280;20544;50.018;20.010;2023-04-20T04:57:04;99000.39;;;8.41;100.00
23899;BME280;20544;50.018;20.010;2023-04-20T05:00:21;99009.16;;;8.41;100.00
23899;BME280;20544;50.018;20.010;2023-04-20T05:03:38;99007.03;;;8.45;100.00
23899;BME280;20544;50.018;20.010;2023-04-20T05:06:54;99015.60;;;8.39;100.00
23899;BME280;20544;50.018;20.010;2023-04-20T05:10:11;99014.62;;;8.40;100.00
23899;BME280;20544;50.018;20.010;2023-04-20T05:13:28;99017.57;;;8.37;100.00
23899;BME280;20544;50.018;20.010;2023-04-20T05:16:44;99012.28;;;8.37;100.00
23899;BME280;20544;50.018;20.010;2023-04-20T05:20:01;99016.31;;;8.49;100.00
23899;BME280;20544;50.018;20.010;2023-04-20T05:23:22;99019.79;;;8.58;100.00
23899;BME280;20544;50.018;20.010;2023-04-20T05:26:39;99018.83;;;8.67;100.00
23899;BME280;20544;50.018;20.010;2023-04-20T05:29:55;99026.90;;;8.66;100.00
23899;BME280;20544;50.018;20.010;2023-04-20T05:33:13;99022.96;;;8.70;100.00
23899;BME280;20544;50.018;20.010;2023-04-20T05:36:31;99018.33;;;8.80;100.00
23899;BME280;20544;50.018;20.010;2023-04-20T05:39:48;99020.80;;;8.82;100.00
23899;BME280;20544;50.018;20.010;2023-04-20T05:43:04;99019.16;;;8.72;100.00
23899;BME280;20544;50.018;20.010;2023-04-20T05:46:33;99020.30;;;8.78;100.00
23899;BME280;20544;50.018;20.010;2023-04-20T05:49:55;99027.09;;;8.89;100.00
23899;BME280;20544;50.018;20.010;2023-04-20T05:56:39;99030.90;;;8.86;100.00
23899;BME280;20544;50.018;20.010;2023-04-20T06:00:04;99030.56;;;8.98;100.00
23899;BME280;20544;50.018;20.010;2023-04-20T06:03:22;99023.45;;;9.06;100.00
23899;BME280;20544;50.018;20.010;2023-04-20T06:06:42;99023.28;;;9.08;100.00
23899;BME280;20544;50.018;20.010;2023-04-20T06:09:59;99022.62;;;9.14;100.00
23899;BME280;20544;50.018;20.010;2023-04-20T06:13:17;99027.91;;;9.22;100.00
23899;BME280;20544;50.018;20.010;2023-04-20T06:16:34;99022.45;;;9.24;100.00
23899;BME280;20544;50.018;20.010;2023-04-20T06:19:51;99010.38;;;9.30;100.00
23899;BME280;20544;50.018;20.010;2023-04-20T06:23:08;99028.06;;;9.29;100.00
23899;BME280;20544;50.018;20.010;2023-04-20T06:26:25;99028.88;;;9.38;100.00
23899;BME280;20544;50.018;20.010;2023-04-20T06:29:43;99024.25;;;9.48;100.00
23899;BME280;20544;50.018;20.010;2023-04-20T06:33:00;99030.84;;;9.52;100.00
23899;BME280;20544;50.018;20.010;2023-04-20T06:36:18;99032.32;;;9.63;100.00
23899;BME280;20544;50.018;20.010;2023-04-20T06:39:35;99032.28;;;9.71;100.00
23899;BME280;20544;50.018;20.010;2023-04-20T06:42:52;99036.70;;;9.87;100.00
23899;BME280;20544;50.018;20.010;2023-04-20T06:46:08;99030.31;;;10.13;100.00
23899;BME280;20544;50.018;20.010;2023-04-20T06:49:25;99036.72;;;10.59;100.00
23899;BME280;20544;50.018;20.010;2023-04-20T06:52:41;99041.44;;;10.95;100.00
23899;BME280;20544;50.018;20.010;2023-04-20T06:55:58;99032.48;;;10.96;100.00
23899;BME280;20544;50.018;20.010;2023-04-20T06:59:15;99036.50;;;10.92;100.00
23899;BME280;20544;50.018;20.010;2023-04-20T07:02:42;99037.73;;;11.04;100.00
23899;BME280;20544;50.018;20.010;2023-04-20T07:06:00;99039.11;;;11.15;100.00
23899;BME280;20544;50.018;20.010;2023-04-20T07:09:18;99044.83;;;11.27;100.00
23899;BME280;20544;50.018;20.010;2023-04-20T07:12:36;99052.80;;;11.27;100.00
23899;BME280;20544;50.018;20.010;2023-04-20T07:15:53;99049.77;;;11.30;100.00
23899;BME280;20544;50.018;20.010;2023-04-20T07:19:10;99057.39;;;11.33;100.00
23899;BME280;20544;50.018;20.010;2023-04-20T07:22:26;99050.91;;;11.51;100.00
23899;BME280;20544;50.018;20.010;2023-04-20T07:25:43;99053.17;;;11.39;100.00
23899;BME280;20544;50.018;20.010;2023-04-20T07:28:59;99061.18;;;11.69;100.00
23899;BME280;20544;50.018;20.010;2023-04-20T07:32:15;99057.66;;;12.06;100.00
23899;BME280;20544;50.018;20.010;2023-04-20T07:35:32;99058.19;;;12.17;100.00
23899;BME280;20544;50.018;20.010;2023-04-20T07:38:49;99060.58;;;12.11;100.00
23899;BME280;20544;50.018;20.010;2023-04-20T07:42:05;99054.80;;;12.08;100.00
23899;BME280;20544;50.018;20.010;2023-04-20T07:45:23;99063.13;;;12.20;100.00
23899;BME280;20544;50.018;20.010;2023-04-20T07:48:47;99059.17;;;12.30;100.00
23899;BME280;20544;50.018;20.010;2023-04-20T07:52:04;99068.08;;;12.23;100.00
23899;BME280;20544;50.018;20.010;2023-04-20T07:55:22;99065.30;;;12.31;100.00
23899;BME280;20544;50.018;20.010;2023-04-20T07:58:39;99059.82;;;12.33;100.00
23899;BME280;20544;50.018;20.010;2023-04-20T08:01:59;99059.63;;;12.34;100.00
23899;BME280;20544;50.018;20.010;2023-04-20T08:05:16;99074.13;;;12.32;100.00
23899;BME280;20544;50.018;20.010;2023-04-20T08:08:41;99079.98;;;12.27;100.00
23899;BME280;20544;50.018;20.010;2023-04-20T08:11:58;99070.95;;;12.06;100.00
23899;BME280;20544;50.018;20.010;2023-04-20T08:15:15;99077.05;;;11.92;100.00
23899;BME280;20544;50.018;20.010;2023-04-20T08:18:32;99077.70;;;11.79;100.00
23899;BME280;20544;50.018;20.010;2023-04-20T08:21:51;99078.42;;;11.73;100.00
23899;BME280;20544;50.018;20.010;2023-04-20T08:25:20;99082.91;;;11.87;100.00
23899;BME280;20544;50.018;20.010;2023-04-20T08:28:57;99082.67;;;11.97;100.00
23899;BME280;20544;50.018;20.010;2023-04-20T08:32:14;99081.47;;;12.00;100.00
23899;BME280;20544;50.018;20.010;2023-04-20T08:35:32;99086.25;;;12.04;100.00
23899;BME280;20544;50.018;20.010;2023-04-20T08:38:54;99087.25;;;12.18;100.00
23899;BME280;20544;50.018;20.010;2023-04-20T08:42:13;99084.04;;;12.23;100.00
23899;BME280;20544;50.018;20.010;2023-04-20T08:45:30;99090.17;;;12.23;100.00
23899;BME280;20544;50.018;20.010;2023-04-20T08:48:48;99088.62;;;12.29;100.00
23899;BME280;20544;50.018;20.010;2023-04-20T08:52:05;99094.39;;;12.33;100.00
23899;BME280;20544;50.018;20.010;2023-04-20T08:55:21;99087.63;;;12.15;100.00
23899;BME280;20544;50.018;20.010;2023-04-20T08:58:38;99090.17;;;12.23;100.00
23899;BME280;20544;50.018;20.010;2023-04-20T09:01:55;99090.56;;;12.05;100.00
23899;BME280;20544;50.018;20.010;2023-04-20T09:05:13;99084.64;;;11.95;100.00
23899;BME280;20544;50.018;20.010;2023-04-20T09:08:39;99087.95;;;11.82;100.00
23899;BME280;20544;50.018;20.010;2023-04-20T09:12:03;99086.16;;;12.12;100.00
23899;BME280;20544;50.018;20.010;2023-04-20T09:15:28;99095.60;;;12.15;100.00
23899;BME280;20544;50.018;20.010;2023-04-20T09:18:53;99095.47;;;12.38;100.00
23899;BME280;20544;50.018;20.010;2023-04-20T09:22:12;99087.42;;;12.68;100.00
23899;BME280;20544;50.018;20.010;2023-04-20T09:25:30;99087.38;;;12.83;100.00
23899;BME280;20544;50.018;20.010;2023-04-20T09:28:49;99095.70;;;12.95;100.00
23899;BME280;20544;50.018;20.010;2023-04-20T09:32:06;99095.19;;;13.06;100.00
23899;BME280;20544;50.018;20.010;2023-04-20T09:35:25;99098.91;;;13.12;100.00
23899;BME280;20544;50.018;20.010;2023-04-20T09:38:41;99101.66;;;13.19;100.00
23899;BME280;20544;50.018;20.010;2023-04-20T09:42:02;99093.15;;;13.30;100.00
23899;BME280;20544;50.018;20.010;2023-04-20T09:45:20;99095.69;;;13.17;100.00
23899;BME280;20544;50.018;20.010;2023-04-20T09:48:37;99094.43;;;13.13;100.00
23899;BME280;20544;50.018;20.010;2023-04-20T09:51:55;99094.16;;;13.29;100.00
23899;BME280;20544;50.018;20.010;2023-04-20T09:55:13;99091.11;;;13.54;100.00
23899;BME280;20544;50.018;20.010;2023-04-20T09:58:32;99085.67;;;13.40;100.00
23899;BME280;20544;50.018;20.010;2023-04-20T10:01:50;99083.65;;;13.42;100.00
23899;BME280;20544;50.018;20.010;2023-04-20T10:05:08;99083.65;;;13.42;100.00
23899;BME280;20544;50.018;20.010;2023-04-20T10:08:25;99076.87;;;13.40;100.00
23899;BME280;20544;50.018;20.010;2023-04-20T10:11:43;99092.38;;;13.36;100.00
23899;BME280;20544;50.018;20.010;2023-04-20T10:15:02;99089.08;;;13.34;100.00
23899;BME280;20544;50.018;20.010;2023-04-20T10:18:23;99080.47;;;13.32;100.00
23899;BME280;20544;50.018;20.010;2023-04-20T10:21:48;99072.48;;;13.32;100.00
23899;BME280;20544;50.018;20.010;2023-04-20T10:25:15;99075.42;;;13.37;100.00
23899;BME280;20544;50.018;20.010;2023-04-20T10:28:42;99078.69;;;13.39;100.00
23899;BME280;20544;50.018;20.010;2023-04-20T10:31:59;99078.36;;;13.49;100.00
23899;BME280;20544;50.018;20.010;2023-04-20T10:35:15;99076.78;;;13.55;100.00
23899;BME280;20544;50.018;20.010;2023-04-20T10:38:33;99076.20;;;13.59;100.00
23899;BME280;20544;50.018;20.010;2023-04-20T10:41:57;99082.91;;;13.55;100.00
23899;BME280;20544;50.018;20.010;2023-04-20T10:45:14;99080.22;;;13.49;100.00
23899;BME280;20544;50.018;20.010;2023-04-20T10:48:31;99079.77;;;13.45;100.00
23899;BME280;20544;50.018;20.010;2023-04-20T10:51:51;99081.80;;;13.43;100.00
23899;BME280;20544;50.018;20.010;2023-04-20T10:55:24;99075.45;;;13.44;100.00
23899;BME280;20544;50.018;20.010;2023-04-20T10:59:09;99079.53;;;13.40;100.00
23899;BME280;20544;50.018;20.010;2023-04-20T11:02:27;99074.41;;;13.38;100.00
23899;BME280;20544;50.018;20.010;2023-04-20T11:05:48;99073.23;;;13.48;100.00
23899;BME280;20544;50.018;20.010;2023-04-20T11:09:16;99063.83;;;13.52;100.00
23899;BME280;20544;50.018;20.010;2023-04-20T11:12:38;99071.55;;;13.68;100.00
23899;BME280;20544;50.018;20.010;2023-04-20T11:15:55;99065.55;;;13.95;100.00
23899;BME280;20544;50.018;20.010;2023-04-20T11:19:13;99058.23;;;14.10;100.00
23899;BME280;20544;50.018;20.010;2023-04-20T11:22:39;99066.88;;;14.19;100.00
23899;BME280;20544;50.018;20.010;2023-04-20T11:25:57;99061.91;;;14.09;100.00
23899;BME280;20544;50.018;20.010;2023-04-20T11:29:25;99065.66;;;14.21;100.00
23899;BME280;20544;50.018;20.010;2023-04-20T11:32:51;99059.53;;;14.28;100.00
23899;BME280;20544;50.018;20.010;2023-04-20T11:36:03;99067.97;;;14.31;100.00
23899;BME280;20544;50.018;20.010;2023-04-20T11:39:26;99063.75;;;14.57;100.00
23899;BME280;20544;50.018;20.010;2023-04-20T11:42:42;99064.98;;;14.54;100.00
23899;BME280;20544;50.018;20.010;2023-04-20T11:45:59;99072.72;;;14.43;100.00
23899;BME280;20544;50.018;20.010;2023-04-20T11:49:21;99069.47;;;14.47;100.00
23899;BME280;20544;50.018;20.010;2023-04-20T11:52:40;99060.24;;;14.56;100.00
23899;BME280;20544;50.018;20.010;2023-04-20T11:55:56;99062.56;;;14.66;100.00
23899;BME280;20544;50.018;20.010;2023-04-20T11:59:13;99066.88;;;14.67;100.00
23899;BME280;20544;50.018;20.010;2023-04-20T12:02:30;99070.39;;;14.75;100.00
23899;BME280;20544;50.018;20.010;2023-04-20T12:05:47;99058.48;;;14.70;100.00
23899;BME280;20544;50.018;20.010;2023-04-20T12:09:04;99057.05;;;14.68;100.00
23899;BME280;20544;50.018;20.010;2023-04-20T12:12:21;99067.27;;;14.64;100.00
23899;BME280;20544;50.018;20.010;2023-04-20T12:15:38;99068.11;;;14.65;100.00
23899;BME280;20544;50.018;20.010;2023-04-20T12:19:18;99065.58;;;14.50;100.00
23899;BME280;20544;50.018;20.010;2023-04-20T12:22:50;99058.20;;;14.52;100.00
23899;BME280;20544;50.018;20.010;2023-04-20T12:26:13;99058.38;;;14.50;100.00
23899;BME280;20544;50.018;20.010;2023-04-20T12:29:34;99054.91;;;14.56;100.00
23899;BME280;20544;50.018;20.010;2023-04-20T12:32:52;99053.45;;;14.40;100.00
23899;BME280;20544;50.018;20.010;2023-04-20T12:36:14;99048.92;;;14.41;100.00
23899;BME280;20544;50.018;20.010;2023-04-20T12:39:34;99047.06;;;14.42;100.00
23899;BME280;20544;50.018;20.010;2023-04-20T12:42:50;99035.20;;;14.58;100.00
23899;BME280;20544;50.018;20.010;2023-04-20T12:46:07;99044.51;;;14.68;100.00
23899;BME280;20544;50.018;20.010;2023-04-20T12:49:29;99042.89;;;14.87;100.00
23899;BME280;20544;50.018;20.010;2023-04-20T12:53:03;99031.40;;;14.87;100.00
23899;BME280;20544;50.018;20.010;2023-04-20T12:56:31;99028.13;;;14.92;100.00
23899;BME280;20544;50.018;20.010;2023-04-20T12:59:52;99025.24;;;14.93;100.00
23899;BME280;20544;50.018;20.010;2023-04-20T13:03:14;99019.88;;;14.80;100.00
23899;BME280;20544;50.018;20.010;2023-04-20T13:06:31;99022.55;;;14.80;100.00
23899;BME280;20544;50.018;20.010;2023-04-20T13:09:50;99025.85;;;14.82;100.00
23899;BME280;20544;50.018;20.010;2023-04-20T13:13:07;99025.22;;;14.80;100.00
23899;BME280;20544;50.018;20.010;2023-04-20T13:16:26;99024.20;;;14.81;100.00
23899;BME280;20544;50.018;20.010;2023-04-20T13:23:18;99021.33;;;14.76;100.00
23899;BME280;20544;50.018;20.010;2023-04-20T13:26:34;99017.81;;;14.68;100.00
23899;BME280;20544;50.018;20.010;2023-04-20T13:29:51;99013.49;;;14.67;100.00
23899;BME280;20544;50.018;20.010;2023-04-20T13:33:10;99022.91;;;14.63;100.00
23899;BME280;20544;50.018;20.010;2023-04-20T13:36:27;99008.94;;;14.54;100.00
23899;BME280;20544;50.018;20.010;2023-04-20T13:39:43;99002.16;;;14.59;100.00
23899;BME280;20544;50.018;20.010;2023-04-20T13:43:00;99005.88;;;14.64;100.00
23899;BME280;20544;50.018;20.010;2023-04-20T13:46:17;99003.03;;;14.66;100.00
23899;BME280;20544;50.018;20.010;2023-04-20T13:49:34;99011.45;;;14.69;100.00
23899;BME280;20544;50.018;20.010;2023-04-20T13:52:51;99005.09;;;14.77;100.00
23899;BME280;20544;50.018;20.010;2023-04-20T13:56:11;98998.31;;;14.81;100.00
23899;BME280;20544;50.018;20.010;2023-04-20T13:59:27;99003.47;;;14.83;100.00
23899;BME280;20544;50.018;20.010;2023-04-20T14:03:03;99003.86;;;14.86;100.00
23899;BME280;20544;50.018;20.010;2023-04-20T14:06:22;99005.94;;;14.98;100.00
23899;BME280;20544;50.018;20.010;2023-04-20T14:09:42;98996.07;;;14.98;100.00
23899;BME280;20544;50.018;20.010;2023-04-20T14:13:00;98994.03;;;15.00;100.00
23899;BME280;20544;50.018;20.010;2023-04-20T14:16:19;98996.48;;;15.02;100.00
23899;BME280;20544;50.018;20.010;2023-04-20T14:19:35;98997.08;;;15.04;100.00
23899;BME280;20544;50.018;20.010;2023-04-20T14:22:52;99001.41;;;14.98;100.00
23899;BME280;20544;50.018;20.010;2023-04-20T14:26:11;98998.95;;;14.97;100.00
23899;BME280;20544;50.018;20.010;2023-04-20T14:29:32;99011.27;;;14.91;100.00
23899;BME280;20544;50.018;20.010;2023-04-20T14:32:55;99005.53;;;14.94;100.00
23899;BME280;20544;50.018;20.010;2023-04-20T14:36:17;99000.58;;;14.91;100.00
23899;BME280;20544;50.018;20.010;2023-04-20T14:39:34;99002.02;;;14.87;100.00
23899;BME280;20544;50.018;20.010;2023-04-20T14:42:52;98998.94;;;14.90;100.00
23899;BME280;20544;50.018;20.010;2023-04-20T14:46:08;99006.34;;;14.88;100.00
23899;BME280;20544;50.018;20.010;2023-04-20T14:49:25;99002.84;;;14.87;100.00
23899;BME280;20544;50.018;20.010;2023-04-20T14:52:42;98999.36;;;14.87;100.00
23899;BME280;20544;50.018;20.010;2023-04-20T14:55:58;98998.13;;;14.83;100.00
23899;BME280;20544;50.018;20.010;2023-04-20T14:59:18;98995.84;;;14.86;100.00
23899;BME280;20544;50.018;20.010;2023-04-20T15:02:35;98999.56;;;14.92;100.00
23899;BME280;20544;50.018;20.010;2023-04-20T15:05:58;99004.48;;;14.95;100.00
23899;BME280;20544;50.018;20.010;2023-04-20T15:09:12;99000.19;;;14.94;100.00
23899;BME280;20544;50.018;20.010;2023-04-20T15:12:34;99000.60;;;14.98;100.00
23899;BME280;20544;50.018;20.010;2023-04-20T15:15:50;99001.00;;;14.95;100.00
23899;BME280;20544;50.018;20.010;2023-04-20T15:19:07;98996.47;;;14.95;100.00
23899;BME280;20544;50.018;20.010;2023-04-20T15:22:24;99000.19;;;14.94;100.00
23899;BME280;20544;50.018;20.010;2023-04-20T15:25:41;98998.11;;;14.96;100.00
23899;BME280;20544;50.018;20.010;2023-04-20T15:29:11;98989.50;;;14.94;100.00
23899;BME280;20544;50.018;20.010;2023-04-20T15:32:28;98995.03;;;14.93;100.00
23899;BME280;20544;50.018;20.010;2023-04-20T15:35:48;98995.23;;;14.91;100.00
23899;BME280;20544;50.018;20.010;2023-04-20T15:39:33;98987.64;;;14.95;100.00
23899;BME280;20544;50.018;20.010;2023-04-20T15:42:49;98992.57;;;14.91;100.00
23899;BME280;20544;50.018;20.010;2023-04-20T15:46:07;98985.19;;;14.93;100.00
23899;BME280;20544;50.018;20.010;2023-04-20T15:49:23;98984.34;;;14.93;100.00
23899;BME280;20544;50.018;20.010;2023-04-20T15:52:40;98990.33;;;14.88;100.00
23899;BME280;20544;50.018;20.010;2023-04-20T15:55:59;98988.47;;;14.82;100.00
23899;BME280;20544;50.018;20.010;2023-04-20T15:59:16;98978.61;;;14.76;100.00
23899;BME280;20544;50.018;20.010;2023-04-20T16:02:34;98981.67;;;14.72;100.00
23899;BME280;20544;50.018;20.010;2023-04-20T16:05:51;98982.30;;;14.68;100.00
23899;BME280;20544;50.018;20.010;2023-04-20T16:09:13;98984.70;;;14.63;100.00
23899;BME280;20544;50.018;20.010;2023-04-20T16:12:32;98971.78;;;14.53;100.00
23899;BME280;20544;50.018;20.010;2023-04-20T16:15:50;98975.05;;;14.48;100.00
23899;BME280;20544;50.018;20.010;2023-04-20T16:19:09;98977.09;;;14.46;100.00
23899;BME280;20544;50.018;20.010;2023-04-20T16:22:26;98980.38;;;14.48;100.00
23899;BME280;20544;50.018;20.010;2023-04-20T16:25:44;98978.73;;;14.47;100.00
23899;BME280;20544;50.018;20.010;2023-04-20T16:29:18;98983.66;;;14.44;100.00
23899;BME280;20544;50.018;20.010;2023-04-20T16:32:35;98975.02;;;14.42;100.00
23899;BME280;20544;50.018;20.010;2023-04-20T16:35:57;98971.54;;;14.41;100.00
23899;BME280;20544;50.018;20.010;2023-04-20T16:39:14;98971.53;;;14.34;100.00
23899;BME280;20544;50.018;20.010;2023-04-20T16:42:30;98974.17;;;14.28;100.00
23899;BME280;20544;50.018;20.010;2023-04-20T16:45:47;98980.94;;;14.23;100.00
23899;BME280;20544;50.018;20.010;2023-04-20T16:49:03;98973.74;;;14.24;100.00
23899;BME280;20544;50.018;20.010;2023-04-20T16:52:24;98978.05;;;14.18;100.00
23899;BME280;20544;50.018;20.010;2023-04-20T16:55:40;98983.77;;;14.15;100.00
23899;BME280;20544;50.018;20.010;2023-04-20T16:58:56;98986.86;;;14.12;100.00
23899;BME280;20544;50.018;20.010;2023-04-20T17:02:13;98978.22;;;14.10;100.00
23899;BME280;20544;50.018;20.010;2023-04-20T17:05:30;98979.86;;;14.04;100.00
23899;BME280;20544;50.018;20.010;2023-04-20T17:08:50;98975.55;;;14.03;100.00
23899;BME280;20544;50.018;20.010;2023-04-20T17:12:09;98975.11;;;14.00;100.00
23899;BME280;20544;50.018;20.010;2023-04-20T17:15:25;98977.78;;;14.00;100.00